createdAt,value
2023-02-12T00:02:18.391Z,13.98
2023-02-12T00:04:47.583Z,13.15
2023-02-12T00:07:14.524Z,13.98
2023-02-12T00:09:41.650Z,14.25
2023-02-12T00:12:08.573Z,14.60
2023-02-12T00:14:38.076Z,15.10
2023-02-12T00:17:05.047Z,16.08
2023-02-12T00:19:31.987Z,16.30
2023-02-12T00:21:59.145Z,16.10
2023-02-12T00:24:27.063Z,16.08
2023-02-12T00:26:54.003Z,17.42
2023-02-12T00:29:20.948Z,17.80
2023-02-12T00:31:47.909Z,17.55
2023-02-12T00:34:14.958Z,17.55
2023-02-12T00:36:41.904Z,21.38
2023-02-12T00:39:10.574Z,24.08
2023-02-12T00:41:37.740Z,21.80
2023-02-12T00:44:05.001Z,18.15
2023-02-12T00:46:34.935Z,20.30
2023-02-12T00:49:02.026Z,18.98
2023-02-12T00:51:28.898Z,20.10
2023-02-12T00:53:55.773Z,20.88
2023-02-12T00:56:22.627Z,19.85
2023-02-12T00:58:49.850Z,19.92
2023-02-12T01:01:16.958Z,20.33
2023-02-12T01:03:43.809Z,19.75
2023-02-12T01:06:10.676Z,19.80
2023-02-12T01:08:37.500Z,20.38
2023-02-12T01:11:05.837Z,19.55
2023-02-12T01:13:34.129Z,21.08
2023-02-12T01:16:11.053Z,19.10
2023-02-12T01:18:38.800Z,19.92
2023-02-12T01:21:11.125Z,19.25
2023-02-12T01:23:38.010Z,18.98
2023-02-12T01:26:05.087Z,18.73
2023-02-12T01:28:32.022Z,19.75
2023-02-12T01:30:59.124Z,19.30
2023-02-12T01:33:26.978Z,19.55
2023-02-12T01:35:55.095Z,20.52
2023-02-12T01:38:22.157Z,21.60
2023-02-12T01:40:49.102Z,21.75
2023-02-12T01:43:16.048Z,21.95
2023-02-12T01:45:53.984Z,19.83
2023-02-12T01:48:24.073Z,19.88
2023-02-12T01:50:53.199Z,18.42
2023-02-12T01:53:22.139Z,18.60
2023-02-12T01:55:53.651Z,20.73
2023-02-12T01:58:21.075Z,18.85
2023-02-12T02:00:48.614Z,20.48
2023-02-12T02:03:15.795Z,20.95
2023-02-12T02:05:57.195Z,18.35
2023-02-12T02:08:24.214Z,20.65
2023-02-12T02:10:51.081Z,19.70
2023-02-12T02:13:37.327Z,22.30
2023-02-12T02:16:15.751Z,19.05
2023-02-12T02:18:58.104Z,19.42
2023-02-12T02:22:03.811Z,19.23
2023-02-12T02:25:04.595Z,19.45
2023-02-12T02:28:09.856Z,18.80
2023-02-12T02:31:14.061Z,19.60
2023-02-12T02:34:17.304Z,18.85
2023-02-12T02:37:00.056Z,18.25
2023-02-12T02:39:33.517Z,20.70
2023-02-12T02:42:04.880Z,20.33
2023-02-12T02:44:49.001Z,19.13
2023-02-12T02:47:19.312Z,19.83
2023-02-12T02:49:52.511Z,19.00
2023-02-12T02:52:28.716Z,18.80
2023-02-12T02:55:01.602Z,17.80
2023-02-12T02:57:34.190Z,18.88
2023-02-12T03:00:26.178Z,19.17
2023-02-12T03:02:59.551Z,20.02
2023-02-12T03:05:33.615Z,21.77
2023-02-12T03:08:08.803Z,20.77
2023-02-12T03:10:40.986Z,20.02
2023-02-12T03:13:12.420Z,19.73
2023-02-12T03:15:44.635Z,20.25
2023-02-12T03:18:36.673Z,19.48
2023-02-12T03:21:10.829Z,20.38
2023-02-12T03:23:49.978Z,20.70
2023-02-12T03:26:22.950Z,19.35
2023-02-12T03:28:49.912Z,19.48
2023-02-12T03:31:22.732Z,19.15
2023-02-12T03:34:17.776Z,20.90
2023-02-12T03:36:57.493Z,20.00
2023-02-12T03:39:24.346Z,18.52
2023-02-12T03:42:13.689Z,19.80
2023-02-12T03:44:58.505Z,19.95
2023-02-12T03:47:34.433Z,19.70
2023-02-12T03:50:23.014Z,21.25
2023-02-12T03:52:51.186Z,18.92
2023-02-12T03:55:18.143Z,19.52
2023-02-12T03:57:49.579Z,20.73
2023-02-12T04:00:19.758Z,20.83
2023-02-12T04:02:50.873Z,21.20
2023-02-12T04:05:24.893Z,22.05
2023-02-12T04:07:53.188Z,21.15
2023-02-12T04:10:27.440Z,20.73
2023-02-12T04:12:54.339Z,20.80
2023-02-12T04:15:48.693Z,20.33
2023-02-12T04:18:22.673Z,20.63
2023-02-12T04:21:11.291Z,20.15
2023-02-12T04:24:15.551Z,20.25
2023-02-12T04:26:54.382Z,21.45
2023-02-12T04:29:55.766Z,21.70
2023-02-12T04:35:28.082Z,20.25
2023-02-12T04:38:18.104Z,21.55
2023-02-12T04:40:45.765Z,21.48
2023-02-12T04:43:12.761Z,22.08
2023-02-12T04:45:39.821Z,21.20
2023-02-12T04:48:07.158Z,21.00
2023-02-12T04:50:42.677Z,23.30
2023-02-12T04:53:10.526Z,24.13
2023-02-12T04:55:38.087Z,23.38
2023-02-12T04:58:06.185Z,23.27
2023-02-12T05:00:33.557Z,22.90
2023-02-12T05:03:00.486Z,23.00
2023-02-12T05:05:27.862Z,23.88
2023-02-12T05:07:54.973Z,24.50
2023-02-12T05:10:22.202Z,23.73
2023-02-12T05:12:52.610Z,25.85
2023-02-12T05:15:19.776Z,25.02
2023-02-12T05:17:46.937Z,26.83
2023-02-12T05:20:14.219Z,30.45
2023-02-12T05:22:42.012Z,28.77
2023-02-12T05:25:08.836Z,27.27
2023-02-12T05:27:35.878Z,31.88
2023-02-12T05:30:02.994Z,31.17
2023-02-12T05:32:29.774Z,30.90
2023-02-12T05:34:56.686Z,30.65
2023-02-12T05:37:23.554Z,29.42
2023-02-12T05:39:50.715Z,28.33
2023-02-12T05:42:17.656Z,30.08
2023-02-12T05:44:44.694Z,28.25
2023-02-12T05:47:11.736Z,29.13
2023-02-12T05:49:38.581Z,28.58
2023-02-12T05:52:05.430Z,24.30
2023-02-12T05:54:32.331Z,24.70
2023-02-12T05:56:59.287Z,25.60
2023-02-12T05:59:26.131Z,26.33
2023-02-12T06:01:53.294Z,26.67
2023-02-12T06:04:23.901Z,28.80
2023-02-12T06:06:52.303Z,33.50
2023-02-12T06:09:19.228Z,32.08
2023-02-12T06:11:46.277Z,33.60
2023-02-12T06:14:16.105Z,32.63
2023-02-12T06:16:45.763Z,40.97
2023-02-12T06:19:12.733Z,31.95
2023-02-12T06:21:39.645Z,31.60
2023-02-12T06:24:06.843Z,27.30
2023-02-12T06:26:34.104Z,32.17
2023-02-12T06:29:02.170Z,33.80
2023-02-12T06:31:34.581Z,33.05
2023-02-12T06:34:04.686Z,38.65
2023-02-12T06:36:31.539Z,40.03
2023-02-12T06:39:00.606Z,35.45
2023-02-12T06:41:27.404Z,38.20
2023-02-12T06:43:54.226Z,37.10
2023-02-12T06:46:22.288Z,35.47
2023-02-12T06:48:52.568Z,36.65
2023-02-12T06:51:21.961Z,35.50
2023-02-12T06:53:52.009Z,32.10
2023-02-12T06:56:20.696Z,30.15
2023-02-12T06:58:52.082Z,27.52
2023-02-12T07:01:21.670Z,24.88
2023-02-12T07:03:51.937Z,27.48
2023-02-12T07:06:19.737Z,29.50
2023-02-12T07:08:47.388Z,27.70
2023-02-12T07:11:14.820Z,25.80
2023-02-12T07:13:42.760Z,28.15
2023-02-12T07:16:12.730Z,26.52
2023-02-12T07:18:39.950Z,28.83
2023-02-12T07:21:08.288Z,27.20
2023-02-12T07:23:36.360Z,26.63
2023-02-12T07:26:06.325Z,27.42
2023-02-12T07:28:33.981Z,29.85
2023-02-12T07:31:10.577Z,27.60
2023-02-12T07:33:38.447Z,26.52
2023-02-12T07:36:07.708Z,27.65
2023-02-12T07:38:39.611Z,24.08
2023-02-12T07:41:10.630Z,28.65
2023-02-12T07:43:38.317Z,26.42
2023-02-12T07:46:32.537Z,28.58
2023-02-12T07:49:01.662Z,26.88
2023-02-12T07:51:29.375Z,27.13
2023-02-12T07:53:57.029Z,29.15
2023-02-12T07:56:31.990Z,26.83
2023-02-12T07:59:00.926Z,25.98
2023-02-12T08:01:34.511Z,29.23
2023-02-12T08:04:03.871Z,27.60
2023-02-12T08:06:32.992Z,29.17
2023-02-12T08:09:02.250Z,27.23
2023-02-12T08:11:30.439Z,24.23
2023-02-12T08:13:58.473Z,24.90
2023-02-12T08:16:27.552Z,27.05
2023-02-12T08:18:56.271Z,25.50
2023-02-12T08:21:26.653Z,26.60
2023-02-12T08:23:58.184Z,26.65
2023-02-12T08:26:29.480Z,26.48
2023-02-12T08:31:27.592Z,31.67
2023-02-12T08:33:55.813Z,29.50
2023-02-12T08:36:38.712Z,31.00
2023-02-12T08:39:07.189Z,34.95
2023-02-12T08:41:35.580Z,27.60
2023-02-12T08:44:04.824Z,31.55
2023-02-12T08:46:37.142Z,27.75
2023-02-12T08:49:12.275Z,27.25
2023-02-12T08:51:41.269Z,24.63
2023-02-12T08:54:12.105Z,25.75
2023-02-12T08:56:40.066Z,27.77
2023-02-12T08:59:08.183Z,28.75
2023-02-12T09:01:41.851Z,35.65
2023-02-12T09:04:23.844Z,27.45
2023-02-12T09:06:51.644Z,27.38
2023-02-12T09:09:19.908Z,26.15
2023-02-12T09:11:47.294Z,25.80
2023-02-12T09:14:16.194Z,29.65
2023-02-12T09:16:43.700Z,27.58
2023-02-12T09:19:14.780Z,27.63
2023-02-12T09:21:42.185Z,24.45
2023-02-12T09:24:09.652Z,29.92
2023-02-12T09:26:36.960Z,31.30
2023-02-12T09:29:05.159Z,31.30
2023-02-12T09:31:33.382Z,44.33
2023-02-12T09:34:05.834Z,34.38
2023-02-12T09:36:33.586Z,40.90
2023-02-12T09:39:00.933Z,60.20
2023-02-12T09:41:45.938Z,65.93
2023-02-12T09:44:58.762Z,25.40
2023-02-12T09:47:39.440Z,44.58
2023-02-12T09:50:33.667Z,25.00
2023-02-12T09:53:01.601Z,24.92
2023-02-12T09:55:31.907Z,32.10
2023-02-12T09:58:02.653Z,30.02
2023-02-12T10:00:44.650Z,24.60
2023-02-12T10:03:22.379Z,24.02
2023-02-12T10:06:01.905Z,28.35
2023-02-12T10:08:40.733Z,33.53
2023-02-12T10:11:34.703Z,36.05
2023-02-12T10:14:04.396Z,34.53
2023-02-12T10:16:44.085Z,37.65
2023-02-12T10:19:23.036Z,36.38
2023-02-12T10:22:14.365Z,48.53
2023-02-12T10:25:28.534Z,41.60
2023-02-12T10:28:02.337Z,29.17
2023-02-12T10:30:53.684Z,31.63
2023-02-12T10:33:39.572Z,25.50
2023-02-12T10:36:39.972Z,27.40
2023-02-12T10:39:24.221Z,28.05
2023-02-12T10:42:03.285Z,31.20
2023-02-12T10:44:32.348Z,23.48
2023-02-12T10:46:59.333Z,21.98
2023-02-12T10:49:26.512Z,25.20
2023-02-12T10:52:17.654Z,31.55
2023-02-12T10:54:46.397Z,28.77
2023-02-12T10:57:26.379Z,25.90
2023-02-12T11:00:02.778Z,25.13
2023-02-12T11:03:13.603Z,25.90
2023-02-12T11:05:57.311Z,24.93
2023-02-12T11:08:27.430Z,23.65
2023-02-12T11:10:54.399Z,23.80
2023-02-12T11:13:26.299Z,23.50
2023-02-12T11:15:54.052Z,28.20
2023-02-12T11:18:31.972Z,25.55
2023-02-12T11:21:06.690Z,29.23
2023-02-12T11:23:40.545Z,24.77
2023-02-12T11:26:19.531Z,27.52
2023-02-12T11:28:58.762Z,25.02
2023-02-12T11:31:32.279Z,28.73
2023-02-12T11:34:22.025Z,31.58
2023-02-12T11:36:54.150Z,28.35
2023-02-12T11:39:32.593Z,26.42
2023-02-12T11:42:01.556Z,27.77
2023-02-12T11:44:34.548Z,33.55
2023-02-12T11:47:09.491Z,25.70
2023-02-12T11:50:03.735Z,27.98
2023-02-12T11:52:34.262Z,27.92
2023-02-12T11:55:04.916Z,28.77
2023-02-12T11:57:47.417Z,28.43
2023-02-12T12:00:20.290Z,56.55
2023-02-12T12:03:00.551Z,69.28
2023-02-12T12:05:35.524Z,63.90
2023-02-12T12:08:21.250Z,43.65
2023-02-12T12:10:55.543Z,34.72
2023-02-12T12:13:30.488Z,66.55
2023-02-12T12:16:27.942Z,50.83
2023-02-12T12:19:33.024Z,39.25
2023-02-12T12:22:11.747Z,27.38
2023-02-12T12:24:53.277Z,55.38
2023-02-12T12:28:00.038Z,28.60
2023-02-12T12:31:04.197Z,25.92
2023-02-12T12:33:44.711Z,22.45
2023-02-12T12:36:17.629Z,26.75
2023-02-12T12:39:25.988Z,27.17
2023-02-12T12:42:01.675Z,26.02
2023-02-12T12:44:28.409Z,27.05
2023-02-12T12:47:05.448Z,28.33
2023-02-12T12:49:50.865Z,42.03
2023-02-12T12:52:26.706Z,32.80
2023-02-12T12:55:35.637Z,31.52
2023-02-12T12:58:14.257Z,24.75
2023-02-12T13:01:21.523Z,26.63
2023-02-12T13:04:06.954Z,26.65
2023-02-12T13:06:52.606Z,23.08
2023-02-12T13:09:52.493Z,30.92
2023-02-12T13:12:37.931Z,26.30
2023-02-12T13:15:38.384Z,26.67
2023-02-12T13:18:21.288Z,28.70
2023-02-12T13:21:20.256Z,28.15
2023-02-12T13:23:57.629Z,36.13
2023-02-12T13:26:30.987Z,59.90
2023-02-12T13:29:43.158Z,71.75
2023-02-12T13:32:16.089Z,33.42
2023-02-12T13:34:44.713Z,22.80
2023-02-12T13:37:31.784Z,22.48
2023-02-12T13:40:03.019Z,20.70
2023-02-12T13:45:18.242Z,34.78
2023-02-12T13:48:24.166Z,30.73
2023-02-12T13:51:01.079Z,38.28
2023-02-12T13:54:01.665Z,27.13
2023-02-12T13:56:33.362Z,29.10
2023-02-12T13:59:01.037Z,25.67
2023-02-12T14:01:46.493Z,28.83
2023-02-12T14:04:19.505Z,35.20
2023-02-12T14:07:14.287Z,45.47
2023-02-12T14:09:50.321Z,30.00
2023-02-12T14:12:40.925Z,35.08
2023-02-12T14:15:09.402Z,26.23
2023-02-12T14:17:36.925Z,28.35
2023-02-12T14:20:06.976Z,30.73
2023-02-12T14:22:33.980Z,34.47
2023-02-12T14:25:21.849Z,41.83
2023-02-12T14:27:52.728Z,37.40
2023-02-12T14:30:31.712Z,36.65
2023-02-12T14:33:23.801Z,32.40
2023-02-12T14:36:15.073Z,35.20
2023-02-12T14:38:47.465Z,36.20
2023-02-12T14:41:43.383Z,35.25
2023-02-12T14:44:23.425Z,36.67
2023-02-12T14:46:52.806Z,35.95
2023-02-12T14:49:36.819Z,42.15
2023-02-12T14:52:06.306Z,42.03
2023-02-12T14:54:54.630Z,51.60
2023-02-12T14:57:35.278Z,58.85
2023-02-12T15:00:17.500Z,72.45
2023-02-12T15:03:15.230Z,68.07
2023-02-12T15:05:48.143Z,65.95
2023-02-12T15:08:37.096Z,71.88
2023-02-12T15:11:41.323Z,75.75
2023-02-12T15:14:22.380Z,75.53
2023-02-12T15:16:59.903Z,79.22
2023-02-12T15:19:59.878Z,96.95
2023-02-12T15:22:32.198Z,88.15
2023-02-12T15:25:27.783Z,88.78
2023-02-12T15:28:01.214Z,70.97
2023-02-12T15:30:35.941Z,78.32
2023-02-12T15:33:05.690Z,81.60
2023-02-12T15:35:36.037Z,78.53
2023-02-12T15:38:04.297Z,74.80
2023-02-12T15:40:32.103Z,86.72
2023-02-12T15:43:05.085Z,88.40
2023-02-12T15:45:36.867Z,63.72
2023-02-12T15:48:09.962Z,61.20
2023-02-12T15:51:06.422Z,67.72
2023-02-12T15:53:33.808Z,52.80
2023-02-12T15:56:02.645Z,48.05
2023-02-12T15:58:29.491Z,51.30
2023-02-12T16:01:03.998Z,63.67
2023-02-12T16:03:32.264Z,93.68
2023-02-12T16:06:14.024Z,71.05
2023-02-12T16:08:46.693Z,79.32
2023-02-12T16:11:17.803Z,79.97
2023-02-12T16:13:54.217Z,75.80
2023-02-12T16:16:45.595Z,72.30
2023-02-12T16:19:33.154Z,68.85
2023-02-12T16:22:07.833Z,82.13
2023-02-12T16:24:45.392Z,70.68
2023-02-12T16:27:15.142Z,71.70
2023-02-12T16:29:48.448Z,76.38
2023-02-12T16:32:32.957Z,72.10
2023-02-12T16:35:07.561Z,69.93
2023-02-12T16:37:37.478Z,70.90
2023-02-12T16:40:13.307Z,74.45
2023-02-12T16:42:40.072Z,73.97
2023-02-12T16:45:26.631Z,61.85
2023-02-12T16:48:25.404Z,49.25
2023-02-12T16:50:56.338Z,54.10
2023-02-12T16:53:33.406Z,61.50
2023-02-12T16:56:01.995Z,68.28
2023-02-12T16:58:29.197Z,62.10
2023-02-12T17:00:57.952Z,73.65
2023-02-12T17:03:26.130Z,66.22
2023-02-12T17:05:55.555Z,64.65
2023-02-12T17:08:23.925Z,62.55
2023-02-12T17:10:51.719Z,70.32
2023-02-12T17:13:20.958Z,72.47
2023-02-12T17:15:59.869Z,66.55
2023-02-12T17:18:27.450Z,66.97
2023-02-12T17:21:03.615Z,61.78
2023-02-12T17:23:31.346Z,65.82
2023-02-12T17:25:58.619Z,70.07
2023-02-12T17:28:25.838Z,82.53
2023-02-12T17:30:53.748Z,78.97
2023-02-12T17:33:53.834Z,78.40
2023-02-12T17:36:20.694Z,85.88
2023-02-12T17:38:47.549Z,89.07
2023-02-12T17:41:14.460Z,93.25
2023-02-12T17:43:41.326Z,89.50
2023-02-12T17:46:13.237Z,94.63
2023-02-12T17:48:40.711Z,88.07
2023-02-12T17:51:11.576Z,81.43
2023-02-12T17:53:40.320Z,82.13
2023-02-12T17:56:19.533Z,84.07
2023-02-12T17:58:47.330Z,86.10
2023-02-12T18:01:23.474Z,82.53
2023-02-12T18:03:59.748Z,154.23
2023-02-12T18:06:30.186Z,78.55
2023-02-12T18:09:01.936Z,111.70
2023-02-12T18:11:29.519Z,101.78
2023-02-12T18:13:57.998Z,101.82
2023-02-12T18:16:28.045Z,100.18
2023-02-12T18:18:55.362Z,99.70
2023-02-12T18:21:22.144Z,100.25
2023-02-12T18:23:49.061Z,101.93
2023-02-12T18:26:17.820Z,100.35
2023-02-12T18:28:45.336Z,99.47
2023-02-12T18:31:12.925Z,106.20
2023-02-12T18:33:40.269Z,106.57
2023-02-12T18:36:10.525Z,105.90
2023-02-12T18:38:42.077Z,106.68
2023-02-12T18:41:18.523Z,109.63
2023-02-12T18:43:48.784Z,105.32
2023-02-12T18:46:22.214Z,112.53
2023-02-12T18:48:50.002Z,112.72
2023-02-12T18:51:22.326Z,106.70
2023-02-12T18:53:55.514Z,101.70
2023-02-12T18:56:25.530Z,95.82
2023-02-12T18:59:00.270Z,96.80
2023-02-12T19:01:31.572Z,116.68
2023-02-12T19:04:01.640Z,101.60
2023-02-12T19:06:30.021Z,82.18
2023-02-12T19:09:01.260Z,111.80
2023-02-12T19:13:56.140Z,111.45
2023-02-12T19:16:24.941Z,106.10
2023-02-12T19:18:58.476Z,109.45
2023-02-12T19:21:28.547Z,110.32
2023-02-12T19:23:57.320Z,100.18
2023-02-12T19:26:25.404Z,84.07
2023-02-12T19:28:52.987Z,82.35
2023-02-12T19:31:23.191Z,80.68
2023-02-12T19:34:07.443Z,107.18
2023-02-12T19:36:36.511Z,97.15
2023-02-12T19:39:07.131Z,115.75
2023-02-12T19:41:41.203Z,121.38
2023-02-12T19:44:26.150Z,133.98
2023-02-12T19:46:53.435Z,131.55
2023-02-12T19:49:23.636Z,128.65
2023-02-12T19:51:50.869Z,136.05
2023-02-12T19:54:19.831Z,129.05
2023-02-12T19:56:47.454Z,136.35
2023-02-12T19:59:19.706Z,124.00
2023-02-12T20:01:48.366Z,118.97
2023-02-12T20:04:20.570Z,126.40
2023-02-12T20:06:52.467Z,123.70
2023-02-12T20:09:23.456Z,120.50
2023-02-12T20:11:50.654Z,124.72
2023-02-12T20:14:18.147Z,123.30
2023-02-12T20:16:51.113Z,117.57
2023-02-12T20:19:24.862Z,113.85
2023-02-12T20:21:56.685Z,123.28
2023-02-12T20:24:29.749Z,129.07
2023-02-12T20:26:58.091Z,119.90
2023-02-12T20:29:25.251Z,126.85
2023-02-12T20:31:52.920Z,127.30
2023-02-12T20:34:22.996Z,128.60
2023-02-12T20:36:50.080Z,127.50
2023-02-12T20:39:19.706Z,141.35
2023-02-12T20:41:48.732Z,146.57
2023-02-12T20:44:20.180Z,152.98
2023-02-12T20:46:49.084Z,155.55
2023-02-12T20:49:18.330Z,152.02
2023-02-12T20:51:45.872Z,147.25
2023-02-12T20:54:13.170Z,145.85
2023-02-12T20:56:42.606Z,143.77
2023-02-12T20:59:11.947Z,145.57
2023-02-12T21:01:41.240Z,133.98
2023-02-12T21:04:14.392Z,139.65
2023-02-12T21:06:41.757Z,139.50
2023-02-12T21:09:11.467Z,136.40
2023-02-12T21:11:40.038Z,134.10
2023-02-12T21:14:23.831Z,132.15
2023-02-12T21:16:52.806Z,132.18
2023-02-12T21:19:20.181Z,126.63
2023-02-12T21:21:47.884Z,123.05
2023-02-12T21:24:19.003Z,114.15
2023-02-12T21:26:48.829Z,117.47
2023-02-12T21:29:15.860Z,104.03
2023-02-12T21:31:45.968Z,98.10
2023-02-12T21:34:16.464Z,105.68
2023-02-12T21:36:45.363Z,91.32
2023-02-12T21:39:24.545Z,74.25
2023-02-12T21:41:54.172Z,74.07
2023-02-12T21:44:22.116Z,57.45
2023-02-12T21:46:49.520Z,66.75
2023-02-12T21:49:24.692Z,68.68
2023-02-12T21:51:53.992Z,73.82
2023-02-12T21:54:21.494Z,75.97
2023-02-12T21:56:50.750Z,85.35
2023-02-12T21:59:18.682Z,86.60
2023-02-12T22:01:48.432Z,89.55
2023-02-12T22:04:16.304Z,93.15
2023-02-12T22:06:46.816Z,91.53
2023-02-12T22:09:15.612Z,96.70
2023-02-12T22:11:43.475Z,97.85
2023-02-12T22:14:15.530Z,96.47
2023-02-12T22:16:44.255Z,99.78
2023-02-12T22:19:11.248Z,100.45
2023-02-12T22:21:40.863Z,102.38
2023-02-12T22:24:11.500Z,100.30
2023-02-12T22:26:38.323Z,100.15
2023-02-12T22:29:08.475Z,96.07
2023-02-12T22:31:38.065Z,92.40
2023-02-12T22:34:08.366Z,90.10
2023-02-12T22:36:37.379Z,92.70
2023-02-12T22:39:05.533Z,89.05
2023-02-12T22:41:33.252Z,86.47
2023-02-12T22:44:01.545Z,83.07
2023-02-12T22:46:28.392Z,89.15
2023-02-12T22:48:55.441Z,80.10
2023-02-12T22:51:25.037Z,74.72
2023-02-12T22:53:53.064Z,69.53
2023-02-12T22:56:20.498Z,62.70
2023-02-12T22:58:47.588Z,57.55
2023-02-12T23:01:17.959Z,53.83
2023-02-12T23:03:45.725Z,56.85
2023-02-12T23:06:23.338Z,53.97
2023-02-12T23:08:52.409Z,54.83
2023-02-12T23:11:20.448Z,56.25
2023-02-12T23:13:47.683Z,63.47
2023-02-12T23:16:15.019Z,62.38
2023-02-12T23:18:42.118Z,63.38
2023-02-12T23:21:09.402Z,62.25
2023-02-12T23:23:36.336Z,65.07
2023-02-12T23:26:03.768Z,59.33
2023-02-12T23:28:31.028Z,59.75
2023-02-12T23:30:58.759Z,55.00
2023-02-12T23:33:25.999Z,55.13
2023-02-12T23:35:52.791Z,53.65
2023-02-12T23:38:19.759Z,55.13
2023-02-12T23:40:48.195Z,55.35
2023-02-12T23:43:15.166Z,55.95
2023-02-12T23:45:44.537Z,56.85
2023-02-12T23:48:11.526Z,55.95
2023-02-12T23:50:38.472Z,60.20
2023-02-12T23:53:05.575Z,58.15
2023-02-12T23:55:35.696Z,56.25
2023-02-12T23:58:04.038Z,57.40
